Time;durP1;ratioP1;P1;durP2;ratioP2;P2;SDS_P1;SDS_P2;PMS_P1;PMS_P2;Temp;Humidity;BMP_temperature;BMP_pressure;BME280_temperature;BME280_humidity;BME280_pressure;Samples;Min_cycle;Max_cycle;Signal;HPM_P1;HPM_P2
2023/12/31 00:01:11;;;;;;;11.75;10.55;;;;;;;20.23;49.10;101491.50;5034439;28;20051;-63
2023/12/31 00:03:40;;;;;;;12.02;10.80;;;;;;;20.22;49.14;101490.66;5032660;28;20052;-63
2023/12/31 00:06:08;;;;;;;13.23;11.77;;;;;;;20.22;49.25;101489.81;5031783;28;20052;-63
2023/12/31 00:08:35;;;;;;;12.02;10.43;;;;;;;20.21;49.19;101486.22;5028934;28;20050;-62
2023/12/31 00:11:03;;;;;;;11.82;10.73;;;;;;;20.19;49.04;101487.34;5034543;28;20049;-63
2023/12/31 00:13:30;;;;;;;13.00;11.75;;;;;;;20.20;49.15;101492.59;5024840;28;20060;-63
2023/12/31 00:15:58;;;;;;;11.20;10.10;;;;;;;20.18;49.13;101489.19;5032015;28;20057;-63
2023/12/31 00:18:25;;;;;;;12.35;11.00;;;;;;;20.19;49.22;101481.97;5028544;28;20049;-61
2023/12/31 00:20:53;;;;;;;11.68;10.57;;;;;;;20.17;49.00;101471.31;5033032;28;20308;-62
2023/12/31 00:23:20;;;;;;;12.13;10.93;;;;;;;20.16;49.13;101469.63;5031906;28;20053;-62
2023/12/31 00:25:47;;;;;;;12.63;11.18;;;;;;;20.17;49.09;101462.41;5031723;28;20046;-62
2023/12/31 00:28:15;;;;;;;11.50;10.30;;;;;;;20.17;49.25;101465.09;5027999;28;20067;-62
2023/12/31 00:30:42;;;;;;;12.05;10.80;;;;;;;20.16;49.19;101458.00;5034251;28;20041;-61
2023/12/31 00:33:10;;;;;;;12.30;11.10;;;;;;;20.15;49.17;101459.84;5038506;28;20069;-62
2023/12/31 00:35:38;;;;;;;12.15;10.75;;;;;;;20.15;49.20;101453.63;5029944;28;20061;-62
2023/12/31 00:38:05;;;;;;;12.52;11.20;;;;;;;20.15;49.13;101467.06;5028414;28;20408;-62
2023/12/31 00:40:33;;;;;;;11.75;10.55;;;;;;;20.16;49.22;101463.38;5034616;28;20506;-63
2023/12/31 00:43:00;;;;;;;12.05;10.85;;;;;;;20.14;49.18;101460.84;5031907;28;20049;-63
2023/12/31 00:45:27;;;;;;;11.18;10.10;;;;;;;20.14;49.26;101463.53;5031222;28;20064;-63
2023/12/31 00:47:55;;;;;;;11.30;10.10;;;;;;;20.14;49.07;101471.59;5028136;28;20072;-62
2023/12/31 00:50:22;;;;;;;12.32;11.02;;;;;;;20.15;49.08;101467.06;5034245;28;20046;-63
2023/12/31 00:52:50;;;;;;;11.75;10.55;;;;;;;20.13;49.13;101456.41;5031219;28;20392;-63
2023/12/31 00:55:17;;;;;;;12.82;11.40;;;;;;;20.14;49.18;101460.84;5035587;28;20068;-63
2023/12/31 00:57:44;;;;;;;11.57;10.25;;;;;;;20.13;49.07;101453.72;5030993;28;20412;-63
2023/12/31 01:00:13;;;;;;;12.80;11.43;;;;;;;20.13;49.15;101456.41;5043122;28;20068;-63
2023/12/31 01:02:43;;;;;;;12.18;10.55;;;;;;;20.14;48.96;101454.59;5031731;28;20045;-63
2023/12/31 01:05:11;;;;;;;12.55;11.25;;;;;;;20.13;49.08;101451.03;5033733;28;20045;-63
2023/12/31 01:07:38;;;;;;;11.40;10.30;;;;;;;20.12;49.14;101449.34;5027587;28;20054;-62
2023/12/31 01:10:06;;;;;;;12.43;10.35;;;;;;;20.12;48.99;101452.03;5035604;28;20041;-63
2023/12/31 01:12:33;;;;;;;11.68;10.55;;;;;;;20.12;49.17;101438.59;5030371;28;20068;-63
2023/12/31 01:15:01;;;;;;;11.27;10.07;;;;;;;20.11;49.14;101439.56;5028898;28;20049;-63
2023/12/31 01:17:29;;;;;;;11.20;10.10;;;;;;;20.12;48.90;101443.09;5027769;28;20451;-62
2023/12/31 01:19:57;;;;;;;11.93;10.73;;;;;;;20.12;49.04;101435.03;5034532;28;20041;-62
2023/12/31 01:22:24;;;;;;;12.18;10.93;;;;;;;20.11;49.15;101436.88;5029684;28;20053;-62
2023/12/31 01:24:51;;;;;;;12.02;10.80;;;;;;;20.11;49.03;101434.19;5033266;28;20049;-62
2023/12/31 01:27:20;;;;;;;11.02;9.93;;;;;;;20.11;49.03;101430.66;5028076;28;20050;-62
2023/12/31 01:29:47;;;;;;;11.93;10.60;;;;;;;20.11;49.01;101430.66;5026209;28;20100;-62
2023/12/31 01:32:15;;;;;;;11.18;10.07;;;;;;;20.10;49.16;101426.25;5032011;28;20062;-62
2023/12/31 01:34:42;;;;;;;11.90;10.57;;;;;;;20.10;49.06;101427.13;5033263;28;20049;-61
2023/12/31 01:37:10;;;;;;;11.85;10.57;;;;;;;20.09;49.26;101425.38;5026193;28;20058;-62
2023/12/31 01:39:37;;;;;;;10.95;9.95;;;;;;;20.10;49.15;101428.94;5035075;28;20040;-62
2023/12/31 01:42:04;;;;;;;13.13;10.55;;;;;;;20.09;49.18;101425.38;5031211;28;20060;-62
2023/12/31 01:44:32;;;;;;;11.32;10.10;;;;;;;20.08;49.17;101417.44;5028833;28;20519;-62
2023/12/31 01:46:59;;;;;;;11.15;10.02;;;;;;;20.07;49.17;101416.59;5026197;28;20094;-61
2023/12/31 01:49:30;;;;;;;12.10;10.50;;;;;;;20.08;49.33;101415.63;5034386;28;20045;-61
2023/12/31 01:51:57;;;;;;;11.60;10.40;;;;;;;20.08;49.27;101418.31;5029579;28;20053;-61
2023/12/31 01:54:25;;;;;;;11.68;10.50;;;;;;;20.07;49.34;101419.28;5009955;28;20472;-61
2023/12/31 01:56:53;;;;;;;12.95;10.18;;;;;;;20.08;49.06;101425.50;5027614;28;20061;-62
2023/12/31 01:59:21;;;;;;;12.68;11.38;;;;;;;20.06;49.27;101412.22;5031923;28;20049;-63
2023/12/31 02:01:51;;;;;;;11.98;10.80;;;;;;;20.05;49.27;101413.16;5029688;28;20053;-63
2023/12/31 02:04:32;;;;;;;11.60;10.40;;;;;;;20.07;49.41;101410.38;5009742;28;20417;-63
2023/12/31 02:07:01;;;;;;;11.25;10.05;;;;;;;20.05;49.21;101405.09;5036044;28;20042;-63
2023/12/31 02:09:29;;;;;;;11.40;10.15;;;;;;;20.05;49.60;101399.72;5035056;28;20050;-64
2023/12/31 02:11:57;;;;;;;11.30;10.10;;;;;;;20.05;49.37;101405.09;5032967;28;20061;-63
2023/12/31 02:14:25;;;;;;;13.00;11.13;;;;;;;20.05;49.45;101398.88;5030871;28;20064;-63
2023/12/31 02:16:52;;;;;;;12.40;11.10;;;;;;;20.05;49.38;101391.66;5036146;28;20064;-62
2023/12/31 02:19:19;;;;;;;11.45;10.35;;;;;;;20.04;49.46;101392.66;5034635;28;20049;-64
2023/12/31 02:21:47;;;;;;;11.38;10.27;;;;;;;20.02;49.47;101386.56;5032984;28;20046;-63
2023/12/31 02:24:17;;;;;;;11.02;9.85;;;;;;;20.04;49.72;101379.22;5030412;28;20046;-63
2023/12/31 02:26:45;;;;;;;11.63;10.30;;;;;;;20.03;49.53;101376.66;5038839;28;20049;-62
2023/12/31 02:29:12;;;;;;;12.55;10.93;;;;;;;20.02;49.61;101381.19;5026374;28;20061;-63
2023/12/31 02:31:40;;;;;;;11.52;10.43;;;;;;;20.02;49.55;101367.75;5032355;28;20045;-63
2023/12/31 02:34:07;;;;;;;13.05;11.00;;;;;;;20.03;49.41;101382.88;5030458;28;20385;-63
2023/12/31 02:36:35;;;;;;;12.40;11.10;;;;;;;20.04;49.48;101384.59;5041389;28;20487;-62
2023/12/31 02:39:03;;;;;;;11.43;10.32;;;;;;;20.03;49.44;101372.13;5026813;28;20045;-61
2023/12/31 02:41:32;;;;;;;12.00;10.80;;;;;;;20.04;49.42;101365.78;5033383;28;20041;-61
2023/12/31 02:44:00;;;;;;;11.57;10.38;;;;;;;20.04;49.60;101368.47;5030288;28;20050;-61
2023/12/31 02:46:27;;;;;;;11.35;10.25;;;;;;;20.04;49.38;101363.09;5032361;28;20057;-62
2023/12/31 02:48:54;;;;;;;13.98;11.65;;;;;;;20.03;49.53;101350.63;5039516;28;20065;-63
2023/12/31 02:51:22;;;;;;;12.88;11.63;;;;;;;20.04;49.49;101346.09;5033162;28;20053;-63
2023/12/31 02:53:50;;;;;;;12.23;11.02;;;;;;;20.03;49.39;101347.09;5033149;28;20060;-63
2023/12/31 02:56:17;;;;;;;11.35;10.25;;;;;;;20.03;49.56;101356.00;5035745;28;20071;-63
2023/12/31 02:58:45;;;;;;;13.10;11.77;;;;;;;20.04;49.52;101357.72;5033981;28;20514;-64
2023/12/31 03:01:13;;;;;;;13.40;12.00;;;;;;;20.02;49.54;101348.06;5037962;28;20045;-64
2023/12/31 03:03:40;;;;;;;12.40;11.07;;;;;;;20.03;49.60;101341.72;5028629;28;20416;-64
2023/12/31 03:06:08;;;;;;;12.45;11.23;;;;;;;20.03;49.57;101341.72;5036635;28;20045;-64
2023/12/31 03:08:35;;;;;;;12.23;11.10;;;;;;;20.03;49.66;101347.09;5033724;28;20049;-63
2023/12/31 03:11:03;;;;;;;13.65;10.93;;;;;;;20.02;49.65;101338.19;5041034;28;20049;-63
2023/12/31 03:13:31;;;;;;;12.93;11.63;;;;;;;20.02;49.61;101335.50;5032949;28;20054;-60
2023/12/31 03:16:05;;;;;;;12.77;10.82;;;;;;;20.03;49.58;101333.66;5033984;28;20076;-61
2023/12/31 03:18:33;;;;;;;12.10;10.75;;;;;;;20.02;49.60;101348.94;5043144;28;20057;-61
2023/12/31 03:21:00;;;;;;;13.23;10.90;;;;;;;20.02;49.53;101343.56;5035848;28;20045;-60
2023/12/31 03:23:28;;;;;;;12.00;10.80;;;;;;;20.01;49.57;101339.13;5032289;28;20057;-60
2023/12/31 03:25:55;;;;;;;12.48;11.27;;;;;;;20.02;49.57;101331.94;5034440;28;20446;-61
2023/12/31 03:28:23;;;;;;;11.43;10.23;;;;;;;20.01;49.53;101331.06;5033123;28;20054;-62
2023/12/31 03:30:50;;;;;;;12.27;11.00;;;;;;;20.01;49.57;101336.44;5030105;28;20046;-62
2023/12/31 03:33:18;;;;;;;13.02;11.68;;;;;;;20.01;49.57;101344.50;5030688;28;20053;-62
2023/12/31 03:35:45;;;;;;;15.18;12.00;;;;;;;20.00;49.56;101329.38;5033396;28;20060;-62
2023/12/31 03:38:13;;;;;;;12.88;11.65;;;;;;;20.00;49.70;101337.44;5044113;28;20045;-61
2023/12/31 03:40:41;;;;;;;12.32;11.00;;;;;;;20.00;49.70;101335.59;5025249;28;20041;-62
2023/12/31 03:43:08;;;;;;;14.23;11.77;;;;;;;20.00;49.55;101340.97;5039811;28;20045;-62
2023/12/31 03:45:35;;;;;;;13.07;11.75;;;;;;;20.00;49.75;101334.75;5033010;28;20053;-61
2023/12/31 03:48:03;;;;;;;14.07;12.57;;;;;;;19.99;49.74;101336.59;5043965;28;20491;-61
2023/12/31 03:50:31;;;;;;;13.70;12.15;;;;;;;19.99;49.81;101341.09;5035068;28;20059;-62
2023/12/31 03:52:58;;;;;;;11.95;10.70;;;;;;;19.99;49.77;101349.16;5029262;28;20061;-61
2023/12/31 03:55:26;;;;;;;13.82;11.20;;;;;;;19.97;49.77;101352.00;5040434;28;20049;-61
2023/12/31 03:57:55;;;;;;;12.77;11.48;;;;;;;19.98;49.61;101342.94;5032742;28;20053;-61
2023/12/31 04:00:22;;;;;;;13.18;11.85;;;;;;;19.97;49.60;101338.56;5030560;28;20056;-61
2023/12/31 04:02:51;;;;;;;12.77;11.45;;;;;;;19.98;49.66;101339.41;5030527;28;20404;-61
2023/12/31 04:05:18;;;;;;;12.38;11.07;;;;;;;19.99;49.79;101341.09;5031797;28;20053;-61
2023/12/31 04:07:46;;;;;;;13.05;11.77;;;;;;;19.97;49.73;101340.34;5041947;28;20508;-62
2023/12/31 04:10:17;;;;;;;12.70;11.40;;;;;;;19.97;49.73;101341.25;5037162;28;20064;-62
2023/12/31 04:12:44;;;;;;;13.63;12.23;;;;;;;19.97;49.61;101335.88;5032215;28;20053;-62
2023/12/31 04:15:11;;;;;;;12.43;11.20;;;;;;;19.96;49.70;101335.97;5045009;28;20049;-61
2023/12/31 04:17:39;;;;;;;13.20;11.88;;;;;;;19.95;49.85;101324.38;5033456;28;20511;-63
2023/12/31 04:20:07;;;;;;;14.32;12.50;;;;;;;19.94;49.72;101322.66;5035912;28;20050;-63
2023/12/31 04:22:35;;;;;;;13.05;11.75;;;;;;;19.95;49.85;101326.22;5030584;28;20053;-63
2023/12/31 04:25:02;;;;;;;14.48;12.10;;;;;;;19.95;49.74;101326.22;5039489;28;20045;-63
2023/12/31 04:27:31;;;;;;;13.32;12.00;;;;;;;19.94;49.82;101330.72;5031265;28;20045;-62
2023/12/31 04:29:59;;;;;;;13.60;12.15;;;;;;;19.95;49.87;101334.25;5028972;28;20050;-61
2023/12/31 04:32:26;;;;;;;13.40;11.70;;;;;;;19.95;49.79;101329.75;5030217;28;20054;-61
2023/12/31 04:34:54;;;;;;;15.50;13.77;;;;;;;19.97;49.73;101318.84;5032444;28;20045;-62
2023/12/31 04:37:22;;;;;;;13.23;11.30;;;;;;;19.97;49.82;101308.09;5040327;28;20068;-62
2023/12/31 04:39:49;;;;;;;13.68;12.20;;;;;;;19.97;49.74;101308.09;5034338;28;20056;-62
2023/12/31 04:42:16;;;;;;;14.75;13.15;;;;;;;19.97;49.92;101305.41;5031690;28;20038;-63
2023/12/31 04:44:45;;;;;;;14.70;13.20;;;;;;;19.97;49.83;101311.69;5044532;28;20064;-63
2023/12/31 04:47:12;;;;;;;15.23;12.93;;;;;;;19.97;49.93;101310.78;5034880;28;20479;-64
2023/12/31 04:49:40;;;;;;;15.57;13.98;;;;;;;19.97;49.72;101305.41;5033500;28;20050;-64
2023/12/31 04:52:08;;;;;;;14.88;12.48;;;;;;;19.96;49.80;101296.50;5035779;28;20526;-64
2023/12/31 04:54:38;;;;;;;15.45;12.38;;;;;;;19.97;49.81;101305.41;5030453;28;20053;-64
2023/12/31 04:57:05;;;;;;;15.80;12.85;;;;;;;19.97;50.01;101300.03;5030862;28;20076;-63
2023/12/31 04:59:33;;;;;;;15.50;13.85;;;;;;;19.96;49.97;101301.88;5027671;28;20041;-64
2023/12/31 05:02:00;;;;;;;14.10;12.60;;;;;;;19.98;49.89;101301.78;5032040;28;20069;-63
2023/12/31 05:04:28;;;;;;;14.85;13.32;;;;;;;19.97;50.12;101284.81;5031998;28;20248;-64
2023/12/31 05:06:55;;;;;;;13.70;12.30;;;;;;;19.97;49.83;101281.25;5039666;28;20054;-64
2023/12/31 05:09:23;;;;;;;14.63;13.02;;;;;;;19.97;49.92;101282.13;5035523;28;20056;-64
2023/12/31 05:11:51;;;;;;;14.63;13.13;;;;;;;19.97;49.94;101283.91;5033944;28;20052;-64
2023/12/31 05:14:18;;;;;;;14.93;13.27;;;;;;;19.96;49.94;101285.75;5031943;28;20049;-64
2023/12/31 05:16:45;;;;;;;15.48;13.95;;;;;;;19.96;50.04;101283.06;5040800;28;20411;-64
2023/12/31 05:19:13;;;;;;;15.18;13.57;;;;;;;19.97;49.88;101275.88;5034034;28;20057;-64
2023/12/31 05:21:40;;;;;;;15.15;13.15;;;;;;;19.95;50.12;101264.41;5033372;28;20042;-65
2023/12/31 05:24:08;;;;;;;14.20;12.70;;;;;;;19.96;50.06;101266.09;5030760;28;20520;-64
2023/12/31 05:26:35;;;;;;;16.85;13.88;;;;;;;19.96;50.03;101280.38;5031524;28;20049;-64
2023/12/31 05:29:03;;;;;;;14.70;13.20;;;;;;;19.95;49.92;101283.22;5027515;28;20053;-65
2023/12/31 05:31:30;;;;;;;15.65;14.05;;;;;;;19.96;50.04;101283.06;5033312;28;20042;-64
2023/12/31 05:33:57;;;;;;;15.80;13.27;;;;;;;19.95;49.93;101276.00;5032389;28;20056;-64
2023/12/31 05:36:25;;;;;;;18.60;14.13;;;;;;;19.94;50.04;101270.75;5031672;28;20057;-63
2023/12/31 05:38:52;;;;;;;13.88;12.48;;;;;;;19.94;50.06;101265.38;5027311;28;20504;-64
2023/12/31 05:41:19;;;;;;;15.13;13.13;;;;;;;19.94;50.20;101262.69;5032916;28;20049;-64
2023/12/31 05:43:47;;;;;;;14.40;12.90;;;;;;;19.93;50.04;101258.28;5042643;28;20053;-64
2023/12/31 05:46:14;;;;;;;14.43;12.93;;;;;;;19.93;49.95;101261.84;5034953;28;20056;-63
2023/12/31 05:48:41;;;;;;;13.23;11.90;;;;;;;19.93;50.08;101253.78;5035735;28;20041;-64
2023/12/31 05:51:09;;;;;;;15.70;13.18;;;;;;;19.94;50.13;101260.00;5035617;28;20052;-63
2023/12/31 05:53:37;;;;;;;15.65;13.60;;;;;;;19.93;49.98;101258.28;5035649;28;20049;-64
2023/12/31 05:56:04;;;;;;;14.77;13.38;;;;;;;19.93;50.15;101255.59;5034687;28;20145;-63
2023/12/31 05:58:32;;;;;;;15.15;13.57;;;;;;;19.93;50.24;101250.22;5031324;28;20436;-63
2023/12/31 06:01:00;;;;;;;15.27;13.57;;;;;;;19.92;50.13;101248.53;5035314;28;20416;-63
2023/12/31 06:03:27;;;;;;;15.40;13.15;;;;;;;19.92;50.15;101241.31;5035251;28;20049;-63
2023/12/31 06:05:54;;;;;;;15.30;13.70;;;;;;;19.91;50.31;101244.97;5034447;28;20046;-62
2023/12/31 06:08:22;;;;;;;15.57;14.00;;;;;;;19.91;50.32;101230.69;5031105;28;20041;-63
2023/12/31 06:10:49;;;;;;;15.95;14.25;;;;;;;19.92;50.31;101227.03;5030386;28;20056;-63
2023/12/31 06:13:17;;;;;;;15.63;13.95;;;;;;;19.91;50.16;101231.53;5035480;28;20064;-63
2023/12/31 06:15:44;;;;;;;15.45;13.88;;;;;;;19.91;50.16;101228.84;5034487;28;20060;-63
2023/12/31 06:18:11;;;;;;;17.00;14.15;;;;;;;19.90;50.28;101226.31;5031034;28;20050;-62
2023/12/31 06:20:39;;;;;;;16.38;14.68;;;;;;;19.90;50.32;101220.94;5033647;28;20065;-62
2023/12/31 06:23:06;;;;;;;16.58;14.18;;;;;;;19.89;50.17;101213.84;5035262;28;20509;-62
2023/12/31 06:25:34;;;;;;;15.80;14.15;;;;;;;19.90;50.17;101210.19;5034562;28;20056;-61
2023/12/31 06:28:01;;;;;;;15.60;13.95;;;;;;;19.89;50.28;101211.16;5030782;28;20045;-62
2023/12/31 06:30:28;;;;;;;17.08;15.25;;;;;;;19.89;50.35;101214.72;5034505;28;20050;-62
2023/12/31 06:32:56;;;;;;;16.52;14.82;;;;;;;19.90;50.25;101221.78;5033932;28;20049;-62
2023/12/31 06:35:23;;;;;;;16.38;14.68;;;;;;;19.90;50.20;101226.31;5034235;28;20387;-61
2023/12/31 06:37:50;;;;;;;17.25;15.40;;;;;;;19.90;50.28;101231.69;5031069;28;20058;-62
2023/12/31 06:40:18;;;;;;;15.68;14.07;;;;;;;19.90;50.18;101229.00;5032067;28;20408;-63
2023/12/31 06:42:45;;;;;;;16.35;14.50;;;;;;;19.91;50.19;101222.63;5041591;28;20072;-63
2023/12/31 06:45:13;;;;;;;16.40;13.75;;;;;;;19.91;50.07;101212.75;5033939;28;20426;-63
2023/12/31 06:47:40;;;;;;;17.05;14.27;;;;;;;19.92;50.31;101213.59;5031018;28;20058;-63
2023/12/31 06:50:10;;;;;;;16.23;14.63;;;;;;;19.91;50.10;101209.19;5033733;28;20049;-63
2023/12/31 06:52:38;;;;;;;15.55;13.82;;;;;;;19.91;50.19;101211.88;5034443;28;20518;-63
2023/12/31 06:55:06;;;;;;;15.90;14.00;;;;;;;19.91;50.17;101217.25;5034129;28;20380;-63
2023/12/31 06:57:34;;;;;;;16.27;14.57;;;;;;;19.92;50.22;101214.44;5030509;28;20061;-62
2023/12/31 07:00:02;;;;;;;16.52;14.68;;;;;;;19.92;50.17;101222.50;5034841;28;20400;-62
2023/12/31 07:02:30;;;;;;;15.43;13.82;;;;;;;19.92;50.10;101225.19;5034197;28;20033;-64
2023/12/31 07:04:57;;;;;;;14.98;13.48;;;;;;;19.92;50.13;101224.34;5034179;28;20056;-64
2023/12/31 07:07:24;;;;;;;16.73;14.93;;;;;;;19.91;50.23;101214.56;5030013;28;20046;-63
2023/12/31 07:09:52;;;;;;;15.25;13.75;;;;;;;19.90;50.27;101211.03;5035611;28;20049;-63
2023/12/31 07:12:20;;;;;;;14.85;13.27;;;;;;;19.91;50.26;101215.44;5034281;28;20056;-63
2023/12/31 07:14:47;;;;;;;16.65;15.02;;;;;;;19.91;50.15;101215.44;5033708;28;20046;-64
2023/12/31 07:17:15;;;;;;;15.35;13.75;;;;;;;19.91;50.15;101217.25;5035218;28;20056;-62
2023/12/31 07:19:42;;;;;;;16.05;14.35;;;;;;;19.90;50.32;101216.41;5034899;28;20396;-62
2023/12/31 07:22:09;;;;;;;17.38;15.55;;;;;;;19.90;50.25;101218.25;5034043;28;20053;-63
2023/12/31 07:24:39;;;;;;;15.10;13.50;;;;;;;19.89;50.22;101219.22;5030659;28;20052;-62
2023/12/31 07:27:08;;;;;;;15.63;14.02;;;;;;;19.89;50.11;101220.09;5029704;28;20046;-62
2023/12/31 07:29:35;;;;;;;16.63;14.82;;;;;;;19.90;50.22;101224.47;5035241;28;20403;-62
2023/12/31 07:32:03;;;;;;;16.52;14.73;;;;;;;19.90;50.27;101231.69;5032018;28;20060;-62
2023/12/31 07:34:31;;;;;;;16.30;14.70;;;;;;;19.90;50.24;101239.75;5032855;28;20046;-63
2023/12/31 07:36:58;;;;;;;15.45;13.95;;;;;;;19.90;50.18;101234.38;5029188;28;20052;-63
2023/12/31 07:39:26;;;;;;;15.82;14.18;;;;;;;19.89;50.19;101230.84;5035314;28;20487;-63
2023/12/31 07:41:53;;;;;;;15.77;14.10;;;;;;;19.89;50.17;101224.56;5032589;28;20060;-63
2023/12/31 07:44:20;;;;;;;14.82;13.23;;;;;;;19.88;50.39;101223.72;5032501;28;20047;-63
2023/12/31 07:46:48;;;;;;;16.50;14.80;;;;;;;19.90;50.21;101231.69;5029435;28;20497;-63
2023/12/31 07:49:15;;;;;;;16.05;14.30;;;;;;;19.89;50.25;101221.91;5033798;28;20055;-63
2023/12/31 07:51:43;;;;;;;15.18;13.57;;;;;;;19.89;50.23;101225.47;5032693;28;20064;-63
2023/12/31 07:54:10;;;;;;;15.65;14.05;;;;;;;19.90;50.39;101231.69;5032277;28;20041;-63
2023/12/31 07:56:38;;;;;;;16.50;14.60;;;;;;;19.88;50.34;101231.78;5028659;28;20042;-63
2023/12/31 07:59:06;;;;;;;16.10;14.48;;;;;;;19.88;50.21;101222.88;5034822;28;20040;-63
2023/12/31 08:01:33;;;;;;;16.20;14.43;;;;;;;19.87;50.46;101221.19;5025357;28;20057;-64
2023/12/31 08:04:00;;;;;;;15.00;13.45;;;;;;;19.88;50.34;101220.19;5031654;28;20403;-63
2023/12/31 08:06:28;;;;;;;15.98;14.38;;;;;;;19.87;50.48;101215.81;5028074;28;20046;-63
2023/12/31 08:08:55;;;;;;;15.65;14.15;;;;;;;19.88;50.48;101214.81;5034594;28;20045;-63
2023/12/31 08:11:23;;;;;;;16.58;14.70;;;;;;;19.87;50.31;101205.91;5032360;28;20053;-63
2023/12/31 08:13:50;;;;;;;16.00;14.32;;;;;;;19.88;50.30;101198.69;5032144;28;20097;-62
2023/12/31 08:16:19;;;;;;;17.15;14.40;;;;;;;19.87;50.44;101202.38;5028687;28;20054;-63
2023/12/31 08:18:46;;;;;;;15.70;14.10;;;;;;;19.87;50.30;101205.06;5034530;28;20052;-63
2023/12/31 08:21:14;;;;;;;16.02;14.52;;;;;;;19.86;50.36;101206.06;5032242;28;20052;-64
2023/12/31 08:23:41;;;;;;;15.73;14.13;;;;;;;19.86;50.28;101200.69;5031493;28;20105;-63
2023/12/31 08:26:13;;;;;;;16.25;14.52;;;;;;;19.85;50.26;101213.25;5028477;28;20407;-63
2023/12/31 08:28:41;;;;;;;15.77;14.15;;;;;;;19.87;50.30;101211.28;5039453;28;20053;-63
2023/12/31 08:31:15;;;;;;;16.13;14.48;;;;;;;19.88;50.26;101207.59;5031994;28;20389;-63
2023/12/31 08:33:43;;;;;;;16.23;14.52;;;;;;;19.87;50.29;101207.75;5030378;28;20046;-63
2023/12/31 08:36:11;;;;;;;16.38;14.65;;;;;;;19.88;50.21;101212.13;5029431;28;20046;-63
2023/12/31 08:38:38;;;;;;;16.80;14.45;;;;;;;19.88;50.24;101214.81;5034783;28;20053;-63
2023/12/31 08:41:06;;;;;;;16.55;14.85;;;;;;;19.88;50.24;101220.19;5031096;28;20045;-64
2023/12/31 08:43:33;;;;;;;15.98;14.32;;;;;;;19.87;50.31;101219.34;5029870;28;20072;-64
2023/12/31 08:46:04;;;;;;;15.52;13.93;;;;;;;19.88;50.41;101222.88;5028671;28;20061;-64
2023/12/31 08:48:32;;;;;;;15.13;13.52;;;;;;;19.88;50.33;101234.47;5033627;28;20395;-62
2023/12/31 08:50:59;;;;;;;17.13;15.32;;;;;;;19.89;50.36;101233.53;5032004;28;20104;-62
2023/12/31 08:53:26;;;;;;;16.65;14.95;;;;;;;19.89;50.21;101229.94;5029189;28;20048;-61
2023/12/31 08:55:54;;;;;;;15.85;14.15;;;;;;;19.89;50.38;101227.25;5030300;28;20428;-63
2023/12/31 08:58:21;;;;;;;16.05;14.30;;;;;;;19.89;50.32;101240.69;5033558;28;20045;-63
2023/12/31 09:00:49;;;;;;;15.45;13.70;;;;;;;19.88;50.63;101244.38;5031450;28;20048;-64
2023/12/31 09:03:16;;;;;;;15.13;13.73;;;;;;;19.89;50.38;101241.59;5029511;28;20050;-64
2023/12/31 09:05:43;;;;;;;16.30;13.75;;;;;;;19.89;50.32;101229.94;5030225;28;20068;-64
2023/12/31 09:08:11;;;;;;;16.13;14.52;;;;;;;19.89;50.35;101224.56;5033782;28;20060;-62
2023/12/31 09:10:38;;;;;;;15.13;13.50;;;;;;;19.89;50.57;101238.00;5031483;28;20053;-61
2023/12/31 09:13:06;;;;;;;14.57;13.05;;;;;;;19.88;50.65;101239.84;5028766;28;20065;-62
2023/12/31 09:15:35;;;;;;;16.85;15.05;;;;;;;19.88;50.55;101237.16;5029394;28;20045;-62
2023/12/31 09:18:03;;;;;;;15.65;13.77;;;;;;;19.88;50.73;101239.84;5032910;28;20041;-61
2023/12/31 09:20:31;;;;;;;14.80;13.30;;;;;;;19.87;50.69;101235.47;5031178;28;20049;-62
2023/12/31 09:22:59;;;;;;;14.70;13.27;;;;;;;19.88;50.75;101233.63;5028350;28;20052;-61
2023/12/31 09:25:27;;;;;;;15.45;13.85;;;;;;;19.87;50.71;101235.47;5030254;28;20057;-63
2023/12/31 09:27:54;;;;;;;15.77;13.10;;;;;;;19.90;50.87;101229.00;5032430;28;20060;-63
2023/12/31 09:30:22;;;;;;;15.10;13.57;;;;;;;19.91;50.96;101236.06;5032092;28;20404;-64
2023/12/31 09:32:49;;;;;;;16.52;14.88;;;;;;;19.91;50.85;101228.00;5030273;28;20052;-61
2023/12/31 09:35:17;;;;;;;16.20;14.57;;;;;;;19.91;50.86;101225.31;5033957;28;20498;-62
2023/12/31 09:37:44;;;;;;;22.05;19.73;;;;;;;19.87;50.85;101216.66;5032400;28;20044;-62
2023/12/31 09:40:13;;;;;;;18.17;16.25;;;;;;;19.87;50.59;101218.50;5025874;28;20057;-63
2023/12/31 09:42:51;;;;;;;18.23;16.23;;;;;;;19.88;50.61;101221.03;5020542;28;20400;-64
2023/12/31 09:45:24;;;;;;;18.13;16.08;;;;;;;19.89;50.72;101219.22;5027313;28;20071;-64
2023/12/31 09:47:53;;;;;;;;;;;;;;;19.89;50.70;101211.16;5022163;28;20508;-61
2023/12/31 09:50:24;;;;;;;16.17;14.23;;;;;;;19.90;50.72;101211.03;5039530;28;20401;-65
2023/12/31 09:52:57;;;;;;;17.27;15.63;;;;;;;19.90;50.58;101205.66;5044729;28;20056;-61
2023/12/31 09:55:27;;;;;;;16.33;14.63;;;;;;;19.92;50.85;101195.63;5043692;28;20033;-64
2023/12/31 09:57:55;;;;;;;16.17;14.38;;;;;;;19.93;50.83;101189.28;5044271;28;20077;-55
2023/12/31 10:00:23;;;;;;;16.95;15.20;;;;;;;19.98;50.73;101188.91;5045554;28;20466;-52
2023/12/31 10:02:53;;;;;;;21.95;17.90;;;;;;;19.99;50.33;101193.28;5045056;28;20076;-49
2023/12/31 10:05:22;;;;;;;19.55;17.40;;;;;;;19.97;50.21;101177.31;5040269;28;20041;-50
2023/12/31 10:07:54;;;;;;;19.23;17.23;;;;;;;19.97;50.02;101181.81;5041793;28;20057;-55
2023/12/31 10:10:25;;;;;;;19.98;17.25;;;;;;;19.97;50.23;101180.00;5043043;28;20507;-52
2023/12/31 10:12:52;;;;;;;20.33;18.13;;;;;;;19.95;50.02;101170.34;5041693;28;20491;-51
2023/12/31 10:15:20;;;;;;;21.45;18.17;;;;;;;19.95;49.96;101167.66;5034023;28;20041;-50
2023/12/31 10:17:48;;;;;;;21.27;19.13;;;;;;;19.93;49.57;101153.47;5035840;28;20050;-61
2023/12/31 10:20:15;;;;;;;20.25;18.13;;;;;;;19.90;49.28;101149.25;5039547;28;20483;-60
2023/12/31 10:22:43;;;;;;;22.13;18.67;;;;;;;19.90;49.49;101153.75;5039309;28;20052;-60
2023/12/31 10:25:14;;;;;;;20.02;17.38;;;;;;;19.90;49.47;101151.06;5032060;28;20037;-60
2023/12/31 10:27:47;;;;;;;20.52;17.30;;;;;;;19.91;49.63;101147.41;5035393;28;20050;-53
2023/12/31 10:30:16;;;;;;;18.70;16.02;;;;;;;19.90;49.76;101138.50;5041199;28;20064;-53
2023/12/31 10:32:44;;;;;;;19.48;16.05;;;;;;;19.91;49.78;101132.13;5038538;28;20558;-53
2023/12/31 10:35:11;;;;;;;20.13;17.75;;;;;;;19.90;49.66;101134.94;5032556;28;20046;-54
2023/12/31 10:37:40;;;;;;;20.02;17.85;;;;;;;19.88;49.21;101129.69;5032674;28;20054;-60
2023/12/31 10:40:23;;;;;;;20.80;18.60;;;;;;;19.88;49.20;101120.78;5038018;28;20045;-60
2023/12/31 10:42:55;;;;;;;19.35;16.77;;;;;;;19.87;49.38;101113.72;5019285;28;20048;-60
2023/12/31 10:45:23;;;;;;;17.70;15.80;;;;;;;19.87;49.16;101109.19;5029716;28;20042;-50
2023/12/31 10:47:59;;;;;;;18.42;16.40;;;;;;;19.86;49.17;101109.31;5033154;28;20098;-60
2023/12/31 10:50:27;;;;;;;18.50;16.05;;;;;;;19.86;49.19;101109.31;5031835;28;20040;-60
2023/12/31 10:53:01;;;;;;;17.35;15.20;;;;;;;19.87;49.25;101093.06;5027726;28;20069;-50
2023/12/31 10:55:30;;;;;;;21.08;18.02;;;;;;;19.85;49.14;101089.66;5026789;28;20049;-52
2023/12/31 10:57:58;;;;;;;18.10;15.85;;;;;;;19.89;49.25;101098.28;5032520;28;20048;-60
2023/12/31 11:00:25;;;;;;;18.15;16.17;;;;;;;19.90;49.21;101086.59;5029110;28;20060;-60
2023/12/31 11:02:57;;;;;;;18.63;16.00;;;;;;;19.92;49.26;101073.88;5024671;28;20094;-60
2023/12/31 11:05:27;;;;;;;18.65;16.50;;;;;;;19.93;49.30;101070.19;5026525;28;20061;-59
2023/12/31 11:07:56;;;;;;;19.08;14.77;;;;;;;19.92;49.31;101052.38;5032516;28;20044;-52
2023/12/31 11:10:24;;;;;;;17.33;14.35;;;;;;;19.94;49.20;101039.66;5025892;28;20052;-48
2023/12/31 11:12:52;;;;;;;16.48;14.35;;;;;;;19.93;49.40;101032.56;5026343;28;20072;-56